createdAt,value
2017-07-19T00:00:15.668Z,8.90
2017-07-19T00:02:41.823Z,8.93
2017-07-19T00:05:07.960Z,8.00
2017-07-19T00:07:34.076Z,7.63
2017-07-19T00:10:00.227Z,9.10
2017-07-19T00:12:26.365Z,9.33
2017-07-19T00:14:52.528Z,10.23
2017-07-19T00:17:18.656Z,11.57
2017-07-19T00:19:44.782Z,9.40
2017-07-19T00:22:10.980Z,10.00
2017-07-19T00:24:37.122Z,8.30
2017-07-19T00:27:03.262Z,7.13
2017-07-19T00:29:29.422Z,8.73
2017-07-19T00:31:55.567Z,6.60
2017-07-19T00:34:21.680Z,11.60
2017-07-19T00:36:48.575Z,6.83
2017-07-19T00:39:14.710Z,7.43
2017-07-19T00:41:40.866Z,9.77
2017-07-19T00:44:06.999Z,9.47
2017-07-19T00:46:33.155Z,11.20
2017-07-19T00:48:59.274Z,11.77
2017-07-19T00:51:25.432Z,8.33
2017-07-19T00:53:51.563Z,12.10
2017-07-19T00:56:17.758Z,14.70
2017-07-19T00:58:43.890Z,7.40
2017-07-19T01:01:10.039Z,11.77
2017-07-19T01:03:36.168Z,10.33
2017-07-19T01:06:02.342Z,9.23
2017-07-19T01:08:28.470Z,9.13
2017-07-19T01:10:55.396Z,8.57
2017-07-19T01:13:21.533Z,12.50
2017-07-19T01:15:48.416Z,10.00
2017-07-19T01:18:14.579Z,9.63
2017-07-19T01:20:40.770Z,8.27
2017-07-19T01:23:06.891Z,9.80
2017-07-19T01:25:33.021Z,13.10
2017-07-19T01:27:59.170Z,10.00
2017-07-19T01:30:25.338Z,9.90
2017-07-19T01:32:51.487Z,7.30
2017-07-19T01:35:17.624Z,10.10
2017-07-19T01:37:43.806Z,9.50
2017-07-19T01:40:09.958Z,12.77
2017-07-19T01:42:36.104Z,15.30
2017-07-19T01:45:02.239Z,11.43
2017-07-19T01:47:28.394Z,7.13
2017-07-19T01:49:54.551Z,9.77
2017-07-19T01:52:20.726Z,10.77
2017-07-19T01:54:46.886Z,10.67
2017-07-19T01:57:13.039Z,9.37
2017-07-19T01:59:39.914Z,15.13
2017-07-19T02:02:06.050Z,16.70
2017-07-19T02:04:32.183Z,12.33
2017-07-19T02:06:58.360Z,8.27
2017-07-19T02:09:24.489Z,16.17
2017-07-19T02:11:51.415Z,7.90
2017-07-19T02:14:17.562Z,9.73
2017-07-19T02:16:43.734Z,10.30
2017-07-19T02:19:09.866Z,16.40
2017-07-19T02:21:36.029Z,16.60
2017-07-19T02:24:02.145Z,8.43
2017-07-19T02:26:28.283Z,10.33
2017-07-19T02:28:55.144Z,10.00
2017-07-19T02:31:21.278Z,10.17
2017-07-19T02:33:47.412Z,11.07
2017-07-19T02:36:13.597Z,10.97
2017-07-19T02:38:40.479Z,11.33
2017-07-19T02:41:06.640Z,12.33
2017-07-19T02:43:32.812Z,11.10
2017-07-19T02:45:58.971Z,11.53
2017-07-19T02:48:25.106Z,8.03
2017-07-19T02:50:51.318Z,11.03
2017-07-19T02:53:17.468Z,11.73
2017-07-19T02:55:43.741Z,11.20
2017-07-19T02:58:10.642Z,8.80
2017-07-19T03:00:36.814Z,10.43
2017-07-19T03:03:02.974Z,11.03
2017-07-19T03:05:29.132Z,13.10
2017-07-19T03:07:55.275Z,14.53
2017-07-19T03:10:22.258Z,10.90
2017-07-19T03:12:48.382Z,12.90
2017-07-19T03:15:14.540Z,9.13
2017-07-19T03:17:40.671Z,16.07
2017-07-19T03:20:06.794Z,9.50
2017-07-19T03:22:53.963Z,12.47
2017-07-19T03:25:20.122Z,17.40
2017-07-19T03:27:46.294Z,19.50
2017-07-19T03:30:12.598Z,15.40
2017-07-19T03:32:38.726Z,9.93
2017-07-19T03:35:04.864Z,9.73
2017-07-19T03:37:31.102Z,12.80
2017-07-19T03:39:57.232Z,14.83
2017-07-19T03:42:24.148Z,14.67
2017-07-19T03:44:50.275Z,10.47
2017-07-19T03:47:16.470Z,13.03
2017-07-19T03:49:42.597Z,11.63
2017-07-19T03:52:08.811Z,16.93
2017-07-19T03:54:35.003Z,16.33
2017-07-19T03:57:01.170Z,10.60
2017-07-19T03:59:27.291Z,11.73
2017-07-19T04:01:53.439Z,19.83
2017-07-19T04:04:19.585Z,14.47
2017-07-19T04:06:45.741Z,19.27
2017-07-19T04:09:12.614Z,19.40
2017-07-19T04:11:38.870Z,12.00
2017-07-19T04:14:05.011Z,12.63
2017-07-19T04:16:31.139Z,12.37
2017-07-19T04:18:57.287Z,13.43
2017-07-19T04:21:23.423Z,10.30
2017-07-19T04:23:50.311Z,15.60
2017-07-19T04:26:16.442Z,10.77
2017-07-19T04:28:42.602Z,9.17
2017-07-19T04:31:08.743Z,17.70
2017-07-19T04:33:34.930Z,14.90
2017-07-19T04:36:01.071Z,11.57
2017-07-19T04:38:27.215Z,12.20
2017-07-19T04:40:53.363Z,10.90
2017-07-19T04:43:20.354Z,10.73
2017-07-19T04:45:46.498Z,12.13
2017-07-19T04:48:12.674Z,28.50
2017-07-19T04:50:38.842Z,11.73
2017-07-19T04:53:04.995Z,14.13
2017-07-19T04:55:31.158Z,11.43
2017-07-19T04:57:57.303Z,19.00
2017-07-19T05:00:23.511Z,12.13
2017-07-19T05:02:49.658Z,11.70
2017-07-19T05:05:15.795Z,14.60
2017-07-19T05:07:41.951Z,14.27
2017-07-19T05:10:08.070Z,9.73
2017-07-19T05:12:34.313Z,9.70
2017-07-19T05:15:00.477Z,13.67
2017-07-19T05:17:26.609Z,11.83
2017-07-19T05:19:52.759Z,14.60
2017-07-19T05:22:18.902Z,14.23
2017-07-19T05:24:45.046Z,13.40
2017-07-19T05:27:11.171Z,12.33
2017-07-19T05:29:37.319Z,14.50
2017-07-19T05:32:04.320Z,10.43
2017-07-19T05:34:30.486Z,10.57
2017-07-19T05:36:57.354Z,12.27
2017-07-19T05:39:23.497Z,10.60
2017-07-19T05:41:49.618Z,11.67
2017-07-19T05:44:15.873Z,13.27
2017-07-19T05:46:42.003Z,13.07
2017-07-19T05:49:08.238Z,12.03
2017-07-19T05:51:34.374Z,12.50
2017-07-19T05:54:00.527Z,11.67
2017-07-19T05:56:26.690Z,10.17
2017-07-19T05:58:52.811Z,16.10
2017-07-19T06:01:18.955Z,11.10
2017-07-19T06:03:45.079Z,15.33
2017-07-19T06:06:11.242Z,15.00
2017-07-19T06:08:38.120Z,13.33
2017-07-19T06:11:04.373Z,13.00
2017-07-19T06:13:30.503Z,13.63
2017-07-19T06:15:56.654Z,10.73
2017-07-19T06:18:22.914Z,11.47
2017-07-19T06:20:49.029Z,10.90
2017-07-19T06:23:15.187Z,11.50
2017-07-19T06:25:41.293Z,11.70
2017-07-19T06:28:07.421Z,10.67
2017-07-19T06:30:33.514Z,13.50
2017-07-19T06:32:59.635Z,12.03
2017-07-19T06:35:25.852Z,13.63
2017-07-19T06:37:52.094Z,9.37
2017-07-19T06:40:18.193Z,10.47
2017-07-19T06:42:45.040Z,13.20
2017-07-19T06:45:11.133Z,11.70
2017-07-19T06:47:37.988Z,18.07
2017-07-19T06:50:04.101Z,14.20
2017-07-19T06:52:30.286Z,8.33
2017-07-19T06:54:56.529Z,10.53
2017-07-19T06:57:22.632Z,9.13
2017-07-19T06:59:48.771Z,9.10
2017-07-19T07:02:14.862Z,11.00
2017-07-19T07:04:40.989Z,9.53
2017-07-19T07:07:07.090Z,7.20
2017-07-19T07:09:33.209Z,14.20
2017-07-19T07:11:59.305Z,7.07
2017-07-19T07:14:25.495Z,11.80
2017-07-19T07:16:52.350Z,10.80
2017-07-19T07:19:18.476Z,11.63
2017-07-19T07:21:44.574Z,9.17
2017-07-19T07:24:11.734Z,13.33
2017-07-19T07:26:37.873Z,10.73
2017-07-19T07:29:03.993Z,11.30
2017-07-19T07:31:30.199Z,13.20
2017-07-19T07:33:56.349Z,19.00
2017-07-19T07:36:22.514Z,12.00
2017-07-19T07:38:48.634Z,10.67
2017-07-19T07:41:14.728Z,10.23
2017-07-19T07:43:40.886Z,9.50
2017-07-19T07:46:07.725Z,10.77
2017-07-19T07:48:34.564Z,10.53
2017-07-19T07:51:00.668Z,8.40
2017-07-19T07:53:27.504Z,8.83
2017-07-19T07:55:53.642Z,8.20
2017-07-19T07:58:19.729Z,10.53
2017-07-19T08:00:45.897Z,8.60
2017-07-19T08:03:12.016Z,9.10
2017-07-19T08:05:38.194Z,8.67
2017-07-19T08:08:04.289Z,11.30
2017-07-19T08:10:30.398Z,7.60
2017-07-19T08:12:56.488Z,10.23
2017-07-19T08:15:22.609Z,12.50
2017-07-19T08:17:48.696Z,10.50
2017-07-19T08:20:14.793Z,6.47
2017-07-19T08:22:40.880Z,11.70
2017-07-19T08:25:06.986Z,6.50
2017-07-19T08:27:33.094Z,7.10
2017-07-19T08:29:59.212Z,7.30
2017-07-19T08:32:25.301Z,7.57
2017-07-19T08:34:51.428Z,12.53
2017-07-19T08:37:17.524Z,8.87
2017-07-19T08:39:43.633Z,7.73
2017-07-19T08:42:09.726Z,7.83
2017-07-19T08:44:35.835Z,6.50
2017-07-19T08:47:01.930Z,6.13
2017-07-19T08:49:28.033Z,7.87
2017-07-19T08:51:54.114Z,6.90
2017-07-19T08:54:20.241Z,8.73
2017-07-19T08:56:46.363Z,9.67
2017-07-19T08:59:12.488Z,9.60
2017-07-19T09:01:38.596Z,7.83
2017-07-19T09:04:04.693Z,6.20
2017-07-19T09:06:30.870Z,7.80
2017-07-19T09:08:57.001Z,9.07
2017-07-19T09:11:23.149Z,11.07
2017-07-19T09:13:49.253Z,9.43
2017-07-19T09:16:15.393Z,7.73
2017-07-19T09:18:41.486Z,6.40
2017-07-19T09:21:07.617Z,8.00
2017-07-19T09:23:33.718Z,8.23
2017-07-19T09:25:59.852Z,7.50
2017-07-19T09:28:26.715Z,7.13
2017-07-19T09:30:52.842Z,9.30
2017-07-19T09:33:18.981Z,9.37
2017-07-19T09:35:45.173Z,7.50
2017-07-19T09:38:11.337Z,8.23
2017-07-19T09:40:38.226Z,8.00
2017-07-19T09:43:04.346Z,7.63
2017-07-19T09:45:31.486Z,7.30
2017-07-19T09:47:57.589Z,9.37
2017-07-19T09:50:23.688Z,8.27
2017-07-19T09:52:49.814Z,7.60
2017-07-19T09:55:15.921Z,9.00
2017-07-19T09:57:42.037Z,7.20
2017-07-19T10:00:11.956Z,10.90
2017-07-19T10:02:38.057Z,7.87
2017-07-19T10:05:04.157Z,9.23
2017-07-19T10:07:30.276Z,8.50
2017-07-19T10:09:56.370Z,6.97
2017-07-19T10:12:22.509Z,6.43
2017-07-19T10:14:48.625Z,6.57
2017-07-19T10:17:14.757Z,5.87
2017-07-19T10:19:40.873Z,10.30
2017-07-19T10:22:07.728Z,11.13
2017-07-19T10:24:33.820Z,6.73
2017-07-19T10:27:00.672Z,18.37
2017-07-19T10:29:26.814Z,7.10
2017-07-19T10:31:52.938Z,6.70
2017-07-19T10:34:19.060Z,6.13
2017-07-19T10:36:45.158Z,5.50
2017-07-19T10:39:11.277Z,6.37
2017-07-19T10:41:37.392Z,6.07
2017-07-19T10:44:03.506Z,6.03
2017-07-19T10:46:29.580Z,6.50
2017-07-19T10:48:55.693Z,11.10
2017-07-19T10:51:21.773Z,9.57
2017-07-19T10:53:48.642Z,8.20
2017-07-19T10:56:14.777Z,7.47
2017-07-19T10:58:40.889Z,14.80
2017-07-19T11:01:07.037Z,6.37
2017-07-19T11:03:33.888Z,6.63
2017-07-19T11:06:00.017Z,5.93
2017-07-19T11:08:26.134Z,8.77
2017-07-19T11:10:52.269Z,11.67
2017-07-19T11:13:18.373Z,6.23
2017-07-19T11:15:44.469Z,8.13
2017-07-19T11:18:10.586Z,6.23
2017-07-19T11:20:51.641Z,13.77
2017-07-19T11:23:17.749Z,6.10
2017-07-19T11:25:43.841Z,6.60
2017-07-19T11:28:09.960Z,7.70
2017-07-19T11:30:36.044Z,8.87
2017-07-19T11:33:02.153Z,8.17
2017-07-19T11:35:28.241Z,8.37
2017-07-19T11:37:54.353Z,8.00
2017-07-19T11:40:20.496Z,9.80
2017-07-19T11:42:47.353Z,6.67
2017-07-19T11:45:13.485Z,6.73
2017-07-19T11:47:41.119Z,11.20
2017-07-19T11:50:07.216Z,6.87
2017-07-19T11:52:33.353Z,7.10
2017-07-19T11:54:59.495Z,8.27
2017-07-19T11:57:25.585Z,6.10
2017-07-19T11:59:51.700Z,9.17
2017-07-19T12:02:17.801Z,8.10
2017-07-19T12:04:43.904Z,6.93
2017-07-19T12:07:09.984Z,10.67
2017-07-19T12:09:36.102Z,7.23
2017-07-19T12:12:02.927Z,12.10
2017-07-19T12:14:29.801Z,6.90
2017-07-19T12:16:55.887Z,7.50
2017-07-19T12:19:21.966Z,9.53
2017-07-19T12:21:48.073Z,7.70
2017-07-19T12:24:14.157Z,7.07
2017-07-19T12:26:40.264Z,6.97
2017-07-19T12:29:06.345Z,8.13
2017-07-19T12:31:32.456Z,6.87
2017-07-19T12:33:58.537Z,6.80
2017-07-19T12:36:24.725Z,6.70
2017-07-19T12:38:50.825Z,6.83
2017-07-19T12:41:16.948Z,6.27
2017-07-19T12:43:43.046Z,6.47
2017-07-19T12:46:09.161Z,8.77
2017-07-19T12:48:35.237Z,6.13
2017-07-19T12:51:01.382Z,8.30
2017-07-19T12:53:27.569Z,6.20
2017-07-19T12:55:53.681Z,10.07
2017-07-19T12:58:19.788Z,8.23
2017-07-19T13:00:46.631Z,6.23
2017-07-19T13:03:12.805Z,6.00
2017-07-19T13:05:38.890Z,6.60
2017-07-19T13:08:05.013Z,8.80
2017-07-19T13:10:31.106Z,7.67
2017-07-19T13:12:57.199Z,8.17
2017-07-19T13:15:23.333Z,6.77
2017-07-19T13:17:49.413Z,7.53
2017-07-19T13:20:15.521Z,5.90
2017-07-19T13:22:41.613Z,6.23
2017-07-19T13:25:07.757Z,13.10
2017-07-19T13:27:34.051Z,6.00
2017-07-19T13:30:00.193Z,5.73
2017-07-19T13:32:26.343Z,5.40
2017-07-19T13:34:53.233Z,8.73
2017-07-19T13:37:19.325Z,6.03
2017-07-19T13:39:46.173Z,6.50
2017-07-19T13:42:12.268Z,8.03
2017-07-19T13:44:39.120Z,5.97
2017-07-19T13:47:05.213Z,5.30
2017-07-19T13:49:31.321Z,10.10
2017-07-19T13:51:58.140Z,8.53
2017-07-19T13:54:24.997Z,4.73
2017-07-19T13:56:51.098Z,6.80
2017-07-19T13:59:17.220Z,5.83
2017-07-19T14:01:43.294Z,4.60
2017-07-19T14:04:09.369Z,6.20
2017-07-19T14:06:35.461Z,5.23
2017-07-19T14:09:01.554Z,6.90
2017-07-19T14:11:27.674Z,7.97
2017-07-19T14:13:53.761Z,6.87
2017-07-19T14:16:19.877Z,5.77
2017-07-19T14:18:45.971Z,4.77
2017-07-19T14:21:12.089Z,5.17
2017-07-19T14:23:38.174Z,5.20
2017-07-19T14:26:04.278Z,8.60
2017-07-19T14:28:30.370Z,5.40
2017-07-19T14:30:56.480Z,5.10
2017-07-19T14:33:22.566Z,11.80
2017-07-19T14:35:49.421Z,8.30
2017-07-19T14:38:15.626Z,5.87
2017-07-19T14:40:41.717Z,8.43
2017-07-19T14:43:07.850Z,4.87
2017-07-19T14:45:33.948Z,5.30
2017-07-19T14:48:00.052Z,7.13
2017-07-19T14:50:26.153Z,9.00
2017-07-19T14:52:52.267Z,20.90
2017-07-19T14:55:18.386Z,5.33
2017-07-19T14:57:44.500Z,9.40
2017-07-19T15:00:10.602Z,5.90
2017-07-19T15:02:36.737Z,8.97
2017-07-19T15:05:03.610Z,5.40
2017-07-19T15:07:29.697Z,7.13
2017-07-19T15:09:55.805Z,6.23
2017-07-19T15:12:21.912Z,4.87
2017-07-19T15:14:48.763Z,7.47
2017-07-19T15:17:14.853Z,4.87
2017-07-19T15:19:41.705Z,8.90
2017-07-19T15:22:07.820Z,6.70
2017-07-19T15:24:48.933Z,5.60
2017-07-19T15:27:15.037Z,10.40
2017-07-19T15:29:41.143Z,6.17
2017-07-19T15:32:08.725Z,10.20
2017-07-19T15:34:34.835Z,8.73
2017-07-19T15:37:01.657Z,12.10
2017-07-19T15:39:28.518Z,7.50
2017-07-19T15:41:54.601Z,8.43
2017-07-19T15:44:21.448Z,12.90
2017-07-19T15:46:47.524Z,7.73
2017-07-19T15:49:13.634Z,7.60
2017-07-19T15:51:39.730Z,9.90
2017-07-19T15:54:05.849Z,8.13
2017-07-19T15:56:32.285Z,5.77
2017-07-19T15:58:58.409Z,10.13
2017-07-19T16:01:25.241Z,10.90
2017-07-19T16:03:52.084Z,7.23
2017-07-19T16:06:18.917Z,4.97
2017-07-19T16:08:45.029Z,5.87
2017-07-19T16:11:11.122Z,6.00
2017-07-19T16:13:37.985Z,5.20
2017-07-19T16:16:04.084Z,5.07
2017-07-19T16:18:30.204Z,5.73
2017-07-19T16:20:56.297Z,5.30
2017-07-19T16:23:23.145Z,5.93
2017-07-19T16:25:49.228Z,5.40
2017-07-19T16:28:15.336Z,5.07
2017-07-19T16:30:41.436Z,6.70
2017-07-19T16:33:07.569Z,9.90
2017-07-19T16:35:33.768Z,10.10
2017-07-19T16:37:59.864Z,12.17
2017-07-19T16:40:25.993Z,8.47
2017-07-19T16:42:52.077Z,8.63
2017-07-19T16:45:18.177Z,7.90
2017-07-19T16:47:44.264Z,8.23
2017-07-19T16:50:10.384Z,5.37
2017-07-19T16:52:36.480Z,5.87
2017-07-19T16:55:03.328Z,7.33
2017-07-19T16:57:29.436Z,6.50
2017-07-19T16:59:55.550Z,6.77
2017-07-19T17:02:21.644Z,8.23
2017-07-19T17:04:47.762Z,8.27
2017-07-19T17:07:13.854Z,12.67
2017-07-19T17:09:39.953Z,8.97
2017-07-19T17:12:06.058Z,11.87
2017-07-19T17:14:32.170Z,9.07
2017-07-19T17:17:05.193Z,8.40
2017-07-19T17:19:31.292Z,9.53
2017-07-19T17:21:58.124Z,7.03
2017-07-19T17:24:24.236Z,11.33
2017-07-19T17:26:50.314Z,9.57
2017-07-19T17:29:16.425Z,6.57
2017-07-19T17:31:42.533Z,8.80
2017-07-19T17:34:08.652Z,7.20
2017-07-19T17:36:34.752Z,7.47
2017-07-19T17:39:00.874Z,7.10
2017-07-19T17:41:27.004Z,10.70
2017-07-19T17:43:53.093Z,7.20
2017-07-19T17:46:19.201Z,7.67
2017-07-19T17:48:45.302Z,8.20
2017-07-19T17:51:11.406Z,8.37
2017-07-19T17:53:37.488Z,9.27
2017-07-19T17:56:03.637Z,14.47
2017-07-19T17:58:29.722Z,9.63
2017-07-19T18:00:55.828Z,13.90
2017-07-19T18:03:21.948Z,52.50
2017-07-19T18:05:48.053Z,9.33
2017-07-19T18:08:14.142Z,7.47
2017-07-19T18:10:41.002Z,8.90
2017-07-19T18:13:07.088Z,12.80
2017-07-19T18:15:33.210Z,9.93
2017-07-19T18:18:00.037Z,8.10
2017-07-19T18:20:26.929Z,5.17
2017-07-19T18:22:53.050Z,12.67
2017-07-19T18:25:19.165Z,16.73
2017-07-19T18:27:45.265Z,14.30
2017-07-19T18:30:11.409Z,32.63
2017-07-19T18:32:37.508Z,10.50
2017-07-19T18:35:03.607Z,14.33
2017-07-19T18:37:29.733Z,20.53
2017-07-19T18:39:55.837Z,10.07
2017-07-19T18:42:21.960Z,10.93
2017-07-19T18:44:48.059Z,13.70
2017-07-19T18:47:14.197Z,11.40
2017-07-19T18:49:41.026Z,9.17
2017-07-19T18:52:07.884Z,11.47
2017-07-19T18:54:34.006Z,10.50
2017-07-19T18:57:00.162Z,21.73
2017-07-19T18:59:26.270Z,14.00
2017-07-19T19:01:52.407Z,32.43
2017-07-19T19:04:19.262Z,25.43
2017-07-19T19:06:45.402Z,26.97
2017-07-19T19:09:11.511Z,23.83
2017-07-19T19:11:37.605Z,15.53
2017-07-19T19:14:03.737Z,18.00
2017-07-19T19:16:29.841Z,25.13
2017-07-19T19:18:55.954Z,21.83
2017-07-19T19:21:22.061Z,19.73
2017-07-19T19:26:38.681Z,19.77
2017-07-19T19:29:04.798Z,21.83
2017-07-19T19:31:30.919Z,19.30
2017-07-19T19:33:57.457Z,20.70
2017-07-19T19:36:23.565Z,35.53
2017-07-19T19:38:49.666Z,32.17
2017-07-19T19:41:15.974Z,18.57
2017-07-19T19:43:42.078Z,22.80
2017-07-19T19:46:08.197Z,20.43
2017-07-19T19:48:34.468Z,19.37
2017-07-19T19:51:00.569Z,22.23
2017-07-19T19:53:26.689Z,20.43
2017-07-19T19:55:53.299Z,16.93
2017-07-19T19:58:20.148Z,24.30
2017-07-19T20:00:46.273Z,23.33
2017-07-19T20:03:13.097Z,19.27
2017-07-19T20:05:39.212Z,24.77
2017-07-19T20:08:05.334Z,18.83
2017-07-19T20:10:31.698Z,16.53
2017-07-19T20:12:57.805Z,18.77
2017-07-19T20:15:23.907Z,15.63
2017-07-19T20:17:50.180Z,14.90
2017-07-19T20:20:16.307Z,12.90
2017-07-19T20:22:42.398Z,22.47
2017-07-19T20:25:08.674Z,16.23
2017-07-19T20:27:34.797Z,19.63
2017-07-19T20:30:00.901Z,15.67
2017-07-19T20:32:27.301Z,17.37
2017-07-19T20:34:53.429Z,14.97
2017-07-19T20:37:19.565Z,18.23
2017-07-19T20:39:46.480Z,22.70
2017-07-19T20:42:12.600Z,21.07
2017-07-19T20:44:39.468Z,18.00
2017-07-19T20:47:05.626Z,16.77
2017-07-19T20:49:31.750Z,26.67
2017-07-19T20:51:57.860Z,14.47
2017-07-19T20:54:24.065Z,23.13
2017-07-19T20:56:50.218Z,25.43
2017-07-19T20:59:16.326Z,22.50
2017-07-19T21:01:42.435Z,24.90
2017-07-19T21:04:09.281Z,21.77
2017-07-19T21:06:35.393Z,19.80
2017-07-19T21:09:01.498Z,16.20
2017-07-19T21:11:27.644Z,20.10
2017-07-19T21:13:53.754Z,24.37
2017-07-19T21:16:19.917Z,19.63
2017-07-19T21:18:46.774Z,21.20
2017-07-19T21:21:12.977Z,16.60
2017-07-19T21:23:39.077Z,23.53
2017-07-19T21:26:05.953Z,28.77
2017-07-19T21:28:32.049Z,27.07
2017-07-19T21:30:58.145Z,23.77
2017-07-19T21:33:24.249Z,28.33
2017-07-19T21:35:51.144Z,28.77
2017-07-19T21:38:17.274Z,22.90
2017-07-19T21:40:44.368Z,23.63
2017-07-19T21:43:10.494Z,22.87
2017-07-19T21:45:36.591Z,23.20
2017-07-19T21:48:02.705Z,27.43
2017-07-19T21:50:28.866Z,21.37
2017-07-19T21:52:55.789Z,25.17
2017-07-19T21:55:21.931Z,24.40
2017-07-19T21:57:48.049Z,24.93
2017-07-19T22:00:14.149Z,27.00
2017-07-19T22:02:40.289Z,24.67
2017-07-19T22:05:06.437Z,19.20
2017-07-19T22:07:32.553Z,25.10
2017-07-19T22:09:58.669Z,28.17
2017-07-19T22:12:24.773Z,30.63
2017-07-19T22:14:50.866Z,25.07
2017-07-19T22:17:17.002Z,29.03
2017-07-19T22:19:43.201Z,23.90
2017-07-19T22:22:09.310Z,26.93
2017-07-19T22:24:35.433Z,24.03
2017-07-19T22:27:01.573Z,20.90
2017-07-19T22:29:27.704Z,24.93
2017-07-19T22:31:53.833Z,22.00
2017-07-19T22:34:19.949Z,19.50
2017-07-19T22:36:46.029Z,24.80
2017-07-19T22:39:12.353Z,21.03
2017-07-19T22:41:39.200Z,19.63
2017-07-19T22:44:05.325Z,21.27
2017-07-19T22:46:31.427Z,26.77
2017-07-19T22:48:57.549Z,23.40
2017-07-19T22:51:23.648Z,24.30
2017-07-19T22:53:49.763Z,24.90
2017-07-19T22:56:15.898Z,31.40
2017-07-19T22:58:42.002Z,24.73
2017-07-19T23:01:08.128Z,23.37
2017-07-19T23:03:34.255Z,27.23
2017-07-19T23:06:00.368Z,22.23
2017-07-19T23:08:26.474Z,23.10
2017-07-19T23:10:52.615Z,19.17
2017-07-19T23:13:18.713Z,26.87
2017-07-19T23:15:44.884Z,22.87
2017-07-19T23:18:10.981Z,24.13
2017-07-19T23:20:37.093Z,25.63
2017-07-19T23:23:03.212Z,25.47
2017-07-19T23:25:29.315Z,21.37
2017-07-19T23:27:55.621Z,26.87
2017-07-19T23:30:22.456Z,29.03
2017-07-19T23:32:49.296Z,24.17
2017-07-19T23:35:15.401Z,22.80
2017-07-19T23:37:42.252Z,26.00
2017-07-19T23:40:08.350Z,25.97
2017-07-19T23:42:34.473Z,24.87
2017-07-19T23:45:00.585Z,25.80
2017-07-19T23:47:26.709Z,26.30
2017-07-19T23:49:52.800Z,27.37
2017-07-19T23:52:18.977Z,30.60
2017-07-19T23:54:45.061Z,28.60
2017-07-19T23:57:11.268Z,25.43
2017-07-19T23:59:37.386Z,23.93
